Palm Village, Texas
Current Conditions -  °F | °C
As of 5:53 PM on Friday 19 Dec 2014 (Local Time) from KBRO Reporting Station
Overcast Overcast  
Wind Chill: 61°   Ceiling: 1000
Heat Index: 61°   Visibility: 10mi
Dew Point: 57°   Wind: 10mph
Humidity: 87%   Direction: 350°N
Pressure: 30.02"   Gusts: NA
Location:  26.0002°N, 97.5729°W
Report Text: KBRO 192353Z 35009KT 10SM OVC010 16/14 A3002 RMK AO2 SLP165 60000 T01610139 10228 20161 53019
Loading
Personal Weather Stations






























Interactive Weather Map New forecast layout! Learn more

10-Day Weather Forecast

Advertisements
Track Severe Weather on mobile